Startpagina
METAR-TAF:

METAR-TAF

Vliegvelden :

Hahn, Duitsland

Flughafen Frankfurt-Hahn

breedte: 49-57N, lengte: 007-16E, hoogte: 491 m

Actueel weer

Dit bericht is 10 minuten geleden gemaakt, om 10:50 UTC
Wind 9 kt uit het oosten, variërend tussen het noordoosten en het zuidoosten
Temperatuur 20°C
Vochtigheid 53%
Druk 1022 hPa
Zicht 10 km of meer
geen wolken onder 1500 m en geen cumulonimbus

METAR: EDFH 261050Z 08009KT 050V130 CAVOK 20/10 Q1022

Tijdstip: 13:00 (11:00 UTC)

Verwachting

Dit bericht is 6 uur en het 0 minuten geleden gemaakt, om 05:00 UTC
Verwachting geldig van 26 om 06 UTC tot 27 om 06 UTC
Wind 10 kt uit het oosten
Zicht 10 km of meer
geen wolken onder 1500 m en geen cumulonimbus

TAF: EDFH 260500Z 2606/2706 10010KT CAVOK

Waarnemingen en weersverwachtingen van meer dan 4000 vliegvelden (METAR en TAF).

De beschikbare stations zijn de gele en rode punten op de kaart.

Ga met uw muis naar het station om de naam te zien.

Klik dan om waarnemingen en weersverwachtingen te zien.

kaart wijzigen: klik op de groene knoppen met een zwart kruis om in te zoomen, op de groene knop met een streepje om uit te zoomen of op de groene pijlen voor aangrenzende kaarten.


METAR-TAF: